Time;durP1;ratioP1;P1;durP2;ratioP2;P2;SDS_P1;SDS_P2;PMS_P1;PMS_P2;Temp;Humidity;BMP_temperature;BMP_pressure;BME280_temperature;BME280_humidity;BME280_pressure;Samples;Min_cycle;Max_cycle;Signal;HPM_P1;HPM_P2
2022/04/02 00:01:13;;;;;;;;;6.25;4.25;;;;;-142.59;100.00;56100.38;5094350;27;49803;-66
2022/04/02 00:03:39;;;;;;;;;5.00;4.25;;;;;-142.59;100.00;56100.38;5093671;27;49791;-64
2022/04/02 00:06:05;;;;;;;;;6.50;5.00;;;;;-142.59;100.00;56100.38;5094430;27;50753;-70
2022/04/02 00:08:30;;;;;;;;;4.75;4.00;;;;;-142.59;100.00;56100.38;5094264;27;49814;-64
2022/04/02 00:10:55;;;;;;;;;6.50;5.50;;;;;-142.59;100.00;56100.38;5093941;27;49907;-64
2022/04/02 00:13:21;;;;;;;;;11.00;8.25;;;;;-142.59;100.00;56100.38;5093631;27;50577;-64
2022/04/02 00:15:46;;;;;;;;;7.25;7.25;;;;;-142.59;100.00;56100.38;5093685;27;49707;-65
2022/04/02 00:18:11;;;;;;;;;9.25;6.75;;;;;-142.59;100.00;56100.38;5093810;27;49805;-65
2022/04/02 00:20:37;;;;;;;;;2.50;2.50;;;;;-142.59;100.00;56100.38;5094101;27;49776;-64
2022/04/02 00:25:47;;;;;;;;;9.25;5.00;;;;;-142.59;100.00;56100.38;5093751;27;49885;-64
2022/04/02 00:28:12;;;;;;;;;4.00;2.00;;;;;-142.59;100.00;56100.38;5093396;27;49688;-64
2022/04/02 00:30:39;;;;;;;;;5.50;5.50;;;;;-142.59;100.00;56100.38;5093747;27;49843;-64
2022/04/02 00:33:05;;;;;;;;;7.00;5.00;;;;;-142.59;100.00;56100.38;5093363;27;50375;-64
2022/04/02 00:35:30;;;;;;;;;4.00;4.00;;;;;-142.59;100.00;56100.38;5093500;27;49730;-64
2022/04/02 00:37:55;;;;;;;;;3.50;3.50;;;;;-142.59;100.00;56100.38;5093759;27;49930;-64
2022/04/02 00:40:21;;;;;;;;;7.00;5.50;;;;;-142.59;100.00;56100.38;5092410;27;49894;-64
2022/04/02 00:42:47;;;;;;;;;6.00;4.75;;;;;-142.59;100.00;56100.38;5093201;27;49718;-65
2022/04/02 00:45:12;;;;;;;;;4.00;4.00;;;;;-142.59;100.00;56100.38;5093324;27;49869;-71
2022/04/02 00:47:37;;;;;;;;;7.75;4.75;;;;;-142.59;100.00;56100.38;5093374;27;49699;-67
2022/04/02 00:50:03;;;;;;;;;4.50;4.50;;;;;-142.59;100.00;56100.38;5093334;27;49633;-65
2022/04/02 00:52:29;;;;;;;;;4.00;4.00;;;;;-142.59;100.00;56100.38;5093404;27;51324;-70
2022/04/02 00:54:55;;;;;;;;;7.75;5.50;;;;;-142.59;100.00;56100.38;5093044;27;49733;-71
2022/04/02 00:57:20;;;;;;;;;3.25;3.00;;;;;-142.59;100.00;56100.38;5092882;27;49759;-64
2022/04/02 00:59:46;;;;;;;;;5.00;3.00;;;;;-142.59;100.00;56100.38;5093218;27;49596;-64
2022/04/02 01:02:12;;;;;;;;;7.00;4.00;;;;;-142.59;100.00;56100.38;5093138;27;50642;-64
2022/04/02 01:04:39;;;;;;;;;2.00;2.00;;;;;-142.59;100.00;56100.38;5092076;27;49895;-64
2022/04/02 01:07:05;;;;;;;;;2.00;2.00;;;;;-142.59;100.00;56100.38;5093003;27;49905;-64
2022/04/02 01:09:31;;;;;;;;;1.75;1.75;;;;;-142.59;100.00;56100.38;5093259;27;50204;-64
2022/04/02 01:11:56;;;;;;;;;5.25;4.50;;;;;-142.59;100.00;56100.38;5092512;27;50375;-64
2022/04/02 01:14:22;;;;;;;;;4.00;4.00;;;;;-142.59;100.00;56100.38;5092781;27;49893;-65
2022/04/02 01:16:48;;;;;;;;;2.00;1.25;;;;;-142.59;100.00;56100.38;5092928;27;49859;-64
2022/04/02 01:19:13;;;;;;;;;6.00;4.00;;;;;-142.59;100.00;56100.38;5093093;27;49164;-65
2022/04/02 01:21:39;;;;;;;;;4.50;4.50;;;;;-142.59;100.00;56100.38;5092742;27;49845;-64
2022/04/02 01:24:05;;;;;;;;;4.00;1.75;;;;;-142.59;100.00;56100.38;5092737;27;49838;-64
2022/04/02 01:26:31;;;;;;;;;2.00;2.00;;;;;-142.59;100.00;56100.38;5092425;27;49726;-64
2022/04/02 01:28:58;;;;;;;;;4.75;4.75;;;;;-142.59;100.00;56100.38;5092781;27;49640;-64
2022/04/02 01:31:25;;;;;;;;;4.75;4.75;;;;;-142.59;100.00;56100.38;5092426;27;49804;-64
2022/04/02 01:33:52;;;;;;;;;2.00;2.00;;;;;-142.59;100.00;56100.38;5092662;27;49861;-64
2022/04/02 01:36:19;;;;;;;;;2.00;1.00;;;;;-142.59;100.00;56100.38;5093173;27;50096;-64
2022/04/02 01:38:45;;;;;;;;;5.00;5.00;;;;;-142.59;100.00;56100.38;5092811;27;49751;-65
2022/04/02 01:41:11;;;;;;;;;2.50;2.50;;;;;-142.59;100.00;56100.38;5091967;27;49865;-65
2022/04/02 01:43:36;;;;;;;;;5.00;5.00;;;;;-142.59;100.00;56100.38;5092208;27;50191;-65
2022/04/02 01:46:03;;;;;;;;;4.00;4.00;;;;;-142.59;100.00;56100.38;5092345;27;49892;-65
2022/04/02 01:48:30;;;;;;;;;2.50;1.00;;;;;-142.59;100.00;56100.38;5092904;27;49989;-65
2022/04/02 01:50:56;;;;;;;;;4.00;1.75;;;;;-142.59;100.00;56100.38;5092150;27;49956;-64
2022/04/02 01:53:22;;;;;;;;;1.00;1.00;;;;;-142.59;100.00;56100.38;5092180;27;49781;-64
2022/04/02 01:55:48;;;;;;;;;10.50;8.50;;;;;-142.59;100.00;56100.38;5091879;27;49781;-64
2022/04/02 01:58:14;;;;;;;;;5.50;3.00;;;;;-142.59;100.00;56100.38;5092321;27;49692;-64
2022/04/02 02:00:40;;;;;;;;;5.50;4.00;;;;;-142.59;100.00;56100.38;5091902;27;50515;-65
2022/04/02 02:03:06;;;;;;;;;10.25;5.00;;;;;-142.59;100.00;56100.38;5091828;27;49580;-65
2022/04/02 02:05:33;;;;;;;;;7.75;5.00;;;;;-142.59;100.00;56100.38;5092068;27;49983;-65
2022/04/02 02:07:58;;;;;;;;;7.75;5.00;;;;;-142.59;100.00;56100.38;5111996;27;49973;-65
2022/04/02 02:10:24;;;;;;;;;3.00;3.00;;;;;-142.59;100.00;56100.38;5111904;27;50738;-65
2022/04/02 02:12:52;;;;;;;;;6.75;5.00;;;;;-142.59;100.00;56100.38;5111483;27;49823;-65
2022/04/02 02:15:17;;;;;;;;;5.00;5.00;;;;;-142.59;100.00;56100.38;5111438;27;49990;-65
2022/04/02 02:17:46;;;;;;;;;2.00;2.00;;;;;-142.59;100.00;56100.38;5111391;27;49742;-65
2022/04/02 02:20:12;;;;;;;;;6.00;6.00;;;;;-142.59;100.00;56100.38;5111231;27;50525;-65
2022/04/02 02:22:39;;;;;;;;;4.00;4.00;;;;;-142.59;100.00;56100.38;5111494;27;49813;-65
2022/04/02 02:25:06;;;;;;;;;5.50;5.50;;;;;-142.59;100.00;56100.38;5111564;27;49846;-65
2022/04/02 02:27:31;;;;;;;;;7.00;7.00;;;;;-142.59;100.00;56100.38;5111403;27;49901;-64
2022/04/02 02:29:57;;;;;;;;;5.75;4.75;;;;;-142.59;100.00;56100.38;5111153;27;50803;-64
2022/04/02 02:32:22;;;;;;;;;7.75;7.25;;;;;-142.59;100.00;56100.38;5111265;27;50034;-64
2022/04/02 02:37:31;;;;;;;;;7.25;4.00;;;;;-142.59;100.00;56100.38;5111306;27;49777;-65
2022/04/02 02:39:57;;;;;;;;;4.00;4.00;;;;;-142.59;100.00;56100.38;5111031;27;50219;-66
2022/04/02 02:42:22;;;;;;;;;7.50;5.00;;;;;-142.59;100.00;56100.38;5110913;27;49812;-66
2022/04/02 02:44:48;;;;;;;;;7.75;7.75;;;;;-142.59;100.00;56100.38;5111262;27;49800;-65
2022/04/02 02:47:13;;;;;;;;;2.75;2.50;;;;;-142.59;100.00;56100.38;5111820;27;49984;-67
2022/04/02 02:49:38;;;;;;;;;7.00;7.00;;;;;-142.59;100.00;56100.38;5111235;27;49860;-71
2022/04/02 02:52:04;;;;;;;;;6.00;6.00;;;;;-142.59;100.00;56100.38;5111240;27;49965;-67
2022/04/02 02:54:29;;;;;;;;;2.00;2.00;;;;;-142.59;100.00;56100.38;5110796;27;49590;-71
2022/04/02 02:56:55;;;;;;;;;5.00;4.00;;;;;-142.59;100.00;56100.38;5110726;27;49919;-64
2022/04/02 02:59:20;;;;;;;;;6.00;6.00;;;;;-142.59;100.00;56100.38;5110733;27;50299;-67
2022/04/02 03:01:46;;;;;;;;;6.50;5.00;;;;;-142.59;100.00;56100.38;5110738;27;50264;-68
2022/04/02 03:04:11;;;;;;;;;8.00;7.25;;;;;-142.59;100.00;56100.38;5111050;27;49717;-70
2022/04/02 03:06:37;;;;;;;;;5.00;4.00;;;;;-142.59;100.00;56100.38;5110772;27;49796;-68
2022/04/02 03:09:03;;;;;;;;;5.50;5.50;;;;;-142.59;100.00;56100.38;5110576;27;50230;-70
2022/04/02 03:11:28;;;;;;;;;10.75;9.00;;;;;-142.59;100.00;56100.38;5110670;27;49717;-70
2022/04/02 03:13:55;;;;;;;;;8.50;6.00;;;;;-142.59;100.00;56100.38;5110708;27;49689;-65
2022/04/02 03:16:21;;;;;;;;;8.00;5.50;;;;;-142.59;100.00;56100.38;5111165;27;49903;-70
2022/04/02 03:18:47;;;;;;;;;14.50;9.50;;;;;-142.59;100.00;56100.38;5110670;27;49918;-65
2022/04/02 03:21:12;;;;;;;;;4.00;4.00;;;;;-142.59;100.00;56100.38;5110835;27;49934;-65
2022/04/02 03:23:37;;;;;;;;;4.50;4.50;;;;;-142.59;100.00;56100.38;5110923;27;49756;-72
2022/04/02 03:26:03;;;;;;;;;8.25;8.25;;;;;-142.59;100.00;56100.38;5110546;27;49840;-67
2022/04/02 03:28:28;;;;;;;;;6.50;5.00;;;;;-142.59;100.00;56100.38;5114082;27;50630;-65
2022/04/02 03:30:54;;;;;;;;;4.75;4.75;;;;;-142.59;100.00;56100.38;5114456;27;49933;-70
2022/04/02 03:33:20;;;;;;;;;9.00;7.00;;;;;-142.59;100.00;56100.38;5114190;27;49856;-64
2022/04/02 03:35:46;;;;;;;;;7.50;4.75;;;;;-142.59;100.00;56100.38;5114124;27;49556;-68
2022/04/02 03:38:11;;;;;;;;;5.50;5.50;;;;;-142.59;100.00;56100.38;5114120;27;50389;-67
2022/04/02 03:40:37;;;;;;;;;4.00;2.00;;;;;-142.59;100.00;56100.38;5114282;27;50013;-64
2022/04/02 03:43:03;;;;;;;;;5.00;2.00;;;;;-142.59;100.00;56100.38;5113932;27;49723;-66
2022/04/02 03:45:29;;;;;;;;;6.50;4.50;;;;;-142.59;100.00;56100.38;5114495;27;49874;-64
2022/04/02 03:47:54;;;;;;;;;4.25;4.25;;;;;-142.59;100.00;56100.38;5114131;27;50147;-64
2022/04/02 03:50:20;;;;;;;;;6.50;6.50;;;;;-142.59;100.00;56100.38;5113682;27;49705;-64
2022/04/02 03:52:46;;;;;;;;;10.00;8.75;;;;;-142.59;100.00;56100.38;5113958;27;49807;-66
2022/04/02 03:55:12;;;;;;;;;8.50;7.00;;;;;-142.59;100.00;56100.38;5113971;27;49778;-65
2022/04/02 03:57:39;;;;;;;;;6.00;6.00;;;;;-142.59;100.00;56100.38;5113408;27;50320;-64
2022/04/02 04:00:06;;;;;;;;;7.50;5.50;;;;;-142.59;100.00;56100.38;5113917;27;49764;-64
2022/04/02 04:02:32;;;;;;;;;7.50;5.00;;;;;-142.59;100.00;56100.38;5112800;27;49692;-64
2022/04/02 04:04:59;;;;;;;;;12.00;7.50;;;;;-142.59;100.00;56100.38;5113833;27;49952;-65
2022/04/02 04:07:25;;;;;;;;;7.50;7.50;;;;;-142.59;100.00;56100.38;5113381;27;49805;-64
2022/04/02 04:09:50;;;;;;;;;10.00;7.00;;;;;-142.59;100.00;56100.38;5113579;27;49665;-67
2022/04/02 04:12:17;;;;;;;;;7.75;5.50;;;;;-142.59;100.00;56100.38;5113719;27;49647;-65
2022/04/02 04:14:43;;;;;;;;;7.75;6.00;;;;;-142.59;100.00;56100.38;5113652;27;49734;-64
2022/04/02 04:17:09;;;;;;;;;6.00;6.00;;;;;-142.59;100.00;56100.38;5113399;27;50902;-64
2022/04/02 04:19:34;;;;;;;;;5.00;4.00;;;;;-142.59;100.00;56100.38;5113550;27;49866;-64
2022/04/02 04:22:00;;;;;;;;;9.50;7.00;;;;;-142.59;100.00;56100.38;5093744;27;49636;-64
2022/04/02 04:24:25;;;;;;;;;8.50;7.00;;;;;-142.59;100.00;56100.38;5093878;27;49810;-64
2022/04/02 04:26:50;;;;;;;;;10.00;8.00;;;;;-142.59;100.00;56100.38;5093334;27;49634;-64
2022/04/02 04:29:16;;;;;;;;;7.25;6.00;;;;;-142.59;100.00;56100.38;5093742;27;49760;-64
2022/04/02 04:31:41;;;;;;;;;12.50;8.75;;;;;-142.59;100.00;56100.38;5093562;27;49986;-65
2022/04/02 04:34:06;;;;;;;;;7.75;7.75;;;;;-142.59;100.00;56100.38;5093808;27;49664;-67
2022/04/02 04:36:32;;;;;;;;;9.50;8.00;;;;;-142.59;100.00;56100.38;5093486;27;49627;-65
2022/04/02 04:38:58;;;;;;;;;8.00;6.00;;;;;-142.59;100.00;56100.38;5093700;27;49875;-65
2022/04/02 04:41:24;;;;;;;;;8.00;8.00;;;;;-142.59;100.00;56100.38;5093441;27;49918;-67
2022/04/02 04:43:50;;;;;;;;;12.25;10.50;;;;;-142.59;100.00;56100.38;5093223;27;49774;-67
2022/04/02 04:46:17;;;;;;;;;8.25;7.00;;;;;-142.59;100.00;56100.38;5093265;27;50423;-66
2022/04/02 04:48:43;;;;;;;;;9.50;7.50;;;;;-142.59;100.00;56100.38;5093297;27;49872;-65
2022/04/02 04:51:10;;;;;;;;;8.50;7.00;;;;;-142.59;100.00;56100.38;5093491;27;49813;-66
2022/04/02 04:53:37;;;;;;;;;8.00;8.00;;;;;-142.59;100.00;56100.38;5093280;27;50690;-65
2022/04/02 04:56:03;;;;;;;;;10.00;7.00;;;;;-142.59;100.00;56100.38;5093208;27;49619;-67
2022/04/02 04:58:29;;;;;;;;;8.50;5.00;;;;;-142.59;100.00;56100.38;5092810;27;49893;-65
2022/04/02 05:00:58;;;;;;;;;12.50;9.00;;;;;-142.59;100.00;56100.38;5091696;27;49826;-65
2022/04/02 05:03:24;;;;;;;;;8.50;7.00;;;;;-142.59;100.00;56100.38;5093277;27;50382;-66
2022/04/02 05:05:52;;;;;;;;;11.00;7.50;;;;;-142.59;100.00;56100.38;5093000;27;51445;-65
2022/04/02 05:08:17;;;;;;;;;7.50;5.50;;;;;-142.59;100.00;56100.38;5093229;27;49689;-68
2022/04/02 05:10:43;;;;;;;;;7.00;6.50;;;;;-142.59;100.00;56100.38;5093250;27;49785;-72
2022/04/02 05:13:10;;;;;;;;;8.50;7.25;;;;;-142.59;100.00;56100.38;5093233;27;49796;-70
2022/04/02 05:15:35;;;;;;;;;9.00;7.25;;;;;-142.59;100.00;56100.38;5093004;27;50554;-65
2022/04/02 05:18:02;;;;;;;;;10.00;10.00;;;;;-142.59;100.00;56100.38;5092978;27;49711;-66
2022/04/02 05:20:28;;;;;;;;;4.00;4.00;;;;;-142.59;100.00;56100.38;5093074;27;49695;-69
2022/04/02 05:22:53;;;;;;;;;10.50;8.00;;;;;-142.59;100.00;56100.38;5092988;27;49774;-68
2022/04/02 05:25:19;;;;;;;;;13.00;8.25;;;;;-142.59;100.00;56100.38;5092664;27;50414;-69
2022/04/02 05:27:44;;;;;;;;;7.50;7.50;;;;;-142.59;100.00;56100.38;5092743;27;49641;-65
2022/04/02 05:30:11;;;;;;;;;11.00;7.00;;;;;-142.59;100.00;56100.38;5092748;27;49924;-65
2022/04/02 05:32:37;;;;;;;;;10.25;9.50;;;;;-142.59;100.00;56100.38;5092947;27;50066;-65
2022/04/02 05:35:03;;;;;;;;;7.00;6.00;;;;;-142.59;100.00;56100.38;5092508;27;49713;-65
2022/04/02 05:37:29;;;;;;;;;6.00;6.00;;;;;-142.59;100.00;56100.38;5092624;27;49763;-66
2022/04/02 05:39:54;;;;;;;;;10.00;7.75;;;;;-142.59;100.00;56100.38;5092533;27;49719;-66
2022/04/02 05:42:21;;;;;;;;;7.75;7.25;;;;;-142.59;100.00;56100.38;5092859;27;49755;-66
2022/04/02 05:44:46;;;;;;;;;11.00;8.00;;;;;-142.59;100.00;56100.38;5092106;27;49783;-72
2022/04/02 05:47:11;;;;;;;;;10.25;7.00;;;;;-142.59;100.00;56100.38;5092733;27;49666;-64
2022/04/02 05:49:37;;;;;;;;;7.00;7.00;;;;;-142.59;100.00;56100.38;5092194;27;49779;-70
2022/04/02 05:52:04;;;;;;;;;8.25;7.00;;;;;-142.59;100.00;56100.38;5092838;27;49842;-66
2022/04/02 05:54:30;;;;;;;;;15.00;10.00;;;;;-142.59;100.00;56100.38;5091875;27;50442;-68
2022/04/02 05:56:56;;;;;;;;;12.75;12.00;;;;;-142.59;100.00;56100.38;5092101;27;49641;-70
2022/04/02 05:59:22;;;;;;;;;8.00;8.00;;;;;-142.59;100.00;56100.38;5092092;27;49822;-71
2022/04/02 06:01:47;;;;;;;;;10.00;8.00;;;;;-142.59;100.00;56100.38;5091088;27;49854;-75
2022/04/02 06:04:13;;;;;;;;;7.50;7.50;;;;;-142.59;100.00;56100.38;5090735;27;52798;-67
2022/04/02 06:06:38;;;;;;;;;8.50;8.50;;;;;-142.59;100.00;56100.38;5092303;27;50004;-67
2022/04/02 06:09:04;;;;;;;;;13.00;10.00;;;;;-142.59;100.00;56100.38;5091898;27;54016;-72
2022/04/02 06:11:30;;;;;;;;;7.00;7.00;;;;;-142.59;100.00;56100.38;5092314;27;49913;-69
2022/04/02 06:13:56;;;;;;;;;9.50;5.00;;;;;-142.59;100.00;56100.38;5091361;27;49703;-66
2022/04/02 06:16:23;;;;;;;;;6.00;6.00;;;;;-142.59;100.00;56100.38;5091904;27;49849;-67
2022/04/02 06:18:48;;;;;;;;;4.50;4.25;;;;;-142.59;100.00;56100.38;5092092;27;49703;-73
2022/04/02 06:21:14;;;;;;;;;10.00;5.00;;;;;-142.59;100.00;56100.38;5092220;27;49766;-69
2022/04/02 06:23:39;;;;;;;;;7.75;7.00;;;;;-142.59;100.00;56100.38;5091397;27;57177;-71
2022/04/02 06:26:04;;;;;;;;;7.50;7.50;;;;;-142.59;100.00;56100.38;5091843;27;50972;-67
2022/04/02 06:28:30;;;;;;;;;6.00;6.00;;;;;-142.59;100.00;56100.38;5091573;27;49691;-67
2022/04/02 06:30:56;;;;;;;;;4.00;4.00;;;;;-142.59;100.00;56100.38;5091906;27;50052;-68
2022/04/02 06:33:22;;;;;;;;;8.50;8.50;;;;;-142.59;100.00;56100.38;5091817;27;49891;-67
2022/04/02 06:35:47;;;;;;;;;7.25;7.25;;;;;-142.59;100.00;56100.38;5091768;27;49770;-63
2022/04/02 06:38:13;;;;;;;;;5.50;4.75;;;;;-142.59;100.00;56100.38;5091795;27;49961;-68
2022/04/02 06:40:39;;;;;;;;;8.50;7.00;;;;;-142.59;100.00;56100.38;5091943;27;49694;-67
2022/04/02 06:43:05;;;;;;;;;10.25;6.75;;;;;-142.59;100.00;56100.38;5091196;27;50551;-66
2022/04/02 06:45:30;;;;;;;;;7.50;6.75;;;;;-142.59;100.00;56100.38;5091589;27;49782;-67
2022/04/02 06:47:56;;;;;;;;;6.50;5.00;;;;;-142.59;100.00;56100.38;5091722;27;49778;-67
2022/04/02 06:50:21;;;;;;;;;10.25;8.75;;;;;-142.59;100.00;56100.38;5091690;27;49849;-68
2022/04/02 06:52:47;;;;;;;;;9.50;9.25;;;;;-142.59;100.00;56100.38;5091542;27;49824;-71
2022/04/02 06:55:13;;;;;;;;;10.50;9.50;;;;;-142.59;100.00;56100.38;5091591;27;49793;-70
2022/04/02 06:57:57;;;;;;;;;9.75;7.00;;;;;-142.59;100.00;56100.38;5091288;27;50249;-66
2022/04/02 07:00:23;;;;;;;;;4.00;4.00;;;;;-142.59;100.00;56100.38;5091495;27;49905;-70
2022/04/02 07:02:49;;;;;;;;;2.00;2.00;;;;;-142.59;100.00;56100.38;5090350;27;50664;-72
2022/04/02 07:05:15;;;;;;;;;5.50;5.00;;;;;-142.59;100.00;56100.38;5091270;27;49822;-69
2022/04/02 07:07:41;;;;;;;;;6.00;6.00;;;;;-142.59;100.00;56100.38;5091153;27;49855;-72
2022/04/02 07:10:08;;;;;;;;;14.00;11.00;;;;;-142.59;100.00;56100.38;5091123;27;49938;-68
2022/04/02 07:12:34;;;;;;;;;7.75;7.75;;;;;-142.59;100.00;56100.38;5090957;27;50272;-68
2022/04/02 07:15:00;;;;;;;;;5.00;5.00;;;;;-142.59;100.00;56100.38;5101472;27;50123;-69
2022/04/02 07:17:27;;;;;;;;;7.25;7.25;;;;;-142.59;100.00;56100.38;5097658;27;49689;-67
2022/04/02 07:19:55;;;;;;;;;9.50;9.50;;;;;-142.59;100.00;56100.38;5099172;27;49945;-71
2022/04/02 07:22:22;;;;;;;;;9.50;6.00;;;;;-142.59;100.00;56100.38;5101577;27;50306;-68
2022/04/02 07:24:48;;;;;;;;;6.50;4.00;;;;;-142.59;100.00;56100.38;5104013;27;49907;-73
2022/04/02 07:27:15;;;;;;;;;7.50;7.50;;;;;-142.59;100.00;56100.38;5104435;27;49680;-67
2022/04/02 07:29:42;;;;;;;;;11.50;6.00;;;;;-142.59;100.00;56100.38;5091905;27;49940;-67
2022/04/02 07:32:09;;;;;;;;;5.50;4.25;;;;;-142.59;100.00;56100.38;5108152;27;50249;-73
2022/04/02 07:34:35;;;;;;;;;8.00;4.25;;;;;-142.59;100.00;56100.38;5100523;27;49807;-71
2022/04/02 07:37:12;;;;;;;;;4.50;4.50;;;;;-142.59;100.00;56100.38;5104338;27;49827;-67
2022/04/02 07:40:06;;;;;;;;;7.50;7.50;;;;;-142.59;100.00;56100.38;5106478;27;49647;-69
2022/04/02 07:42:54;;;;;;;;;5.00;5.00;;;;;-142.59;100.00;56100.38;5108965;27;50757;-72
2022/04/02 07:45:27;;;;;;;;;7.75;7.00;;;;;-142.59;100.00;56100.38;5094783;27;50017;-73
2022/04/02 07:47:57;;;;;;;;;6.50;6.50;;;;;-142.59;100.00;56100.38;5106794;27;49849;-73
2022/04/02 07:50:25;;;;;;;;;10.00;10.00;;;;;-142.59;100.00;56100.38;5100489;27;49958;-75
2022/04/02 07:52:54;;;;;;;;;8.50;6.00;;;;;-142.59;100.00;56100.38;5101444;27;49962;-72
2022/04/02 07:55:20;;;;;;;;;7.25;7.00;;;;;-142.59;100.00;56100.38;5100071;27;49904;-68
2022/04/02 07:57:47;;;;;;;;;8.00;7.00;;;;;-142.59;100.00;56100.38;5099461;27;49819;-67
2022/04/02 08:00:16;;;;;;;;;5.25;5.25;;;;;-142.59;100.00;56100.38;5100224;27;50107;-70
2022/04/02 08:02:43;;;;;;;;;5.00;5.00;;;;;-142.59;100.00;56100.38;5100431;27;50945;-67
2022/04/02 08:05:14;;;;;;;;;8.50;6.50;;;;;-142.59;100.00;56100.38;5103618;27;49657;-68
2022/04/02 08:07:44;;;;;;;;;7.00;5.00;;;;;-142.59;100.00;56100.38;5107048;27;49876;-69
2022/04/02 08:10:12;;;;;;;;;4.25;4.00;;;;;-142.59;100.00;56100.38;5103406;27;49816;-68
2022/04/02 08:12:39;;;;;;;;;9.75;4.75;;;;;-142.59;100.00;56100.38;5100174;27;49697;-69
2022/04/02 08:15:17;;;;;;;;;9.00;5.50;;;;;-142.59;100.00;56100.38;5097571;27;49800;-69
2022/04/02 08:17:54;;;;;;;;;8.50;7.50;;;;;-142.59;100.00;56100.38;5111791;27;49943;-68
2022/04/02 08:20:20;;;;;;;;;4.50;4.50;;;;;-142.59;100.00;56100.38;5104946;27;50069;-67
2022/04/02 08:22:46;;;;;;;;;7.50;7.00;;;;;-142.59;100.00;56100.38;5100523;27;50460;-68
2022/04/02 08:25:13;;;;;;;;;5.25;5.25;;;;;-142.59;100.00;56100.38;5107967;27;49914;-67
2022/04/02 08:28:04;;;;;;;;;2.00;2.00;;;;;-142.59;100.00;56100.38;5105216;27;49770;-68
2022/04/02 08:30:35;;;;;;;;;3.50;3.50;;;;;-142.59;100.00;56100.38;5109141;27;49892;-65
2022/04/02 08:33:23;;;;;;;;;2.50;2.50;;;;;-142.59;100.00;56100.38;5105176;27;50713;-67
2022/04/02 08:36:20;;;;;;;;;5.00;3.50;;;;;-142.59;100.00;56100.38;5111648;27;49807;-80
2022/04/02 08:39:01;;;;;;;;;1.75;1.00;;;;;-142.59;100.00;56100.38;5111253;27;49716;-72
2022/04/02 08:41:54;;;;;;;;;4.75;4.75;;;;;-142.59;100.00;56100.38;5092282;27;49553;-74
2022/04/02 08:44:54;;;;;;;;;8.00;8.00;;;;;-142.59;100.00;56100.38;5091957;27;50483;-71
2022/04/02 08:47:57;;;;;;;;;4.00;4.00;;;;;-142.59;100.00;56100.38;5093641;27;49829;-70
2022/04/02 08:50:36;;;;;;;;;4.75;4.75;;;;;-142.59;100.00;56100.38;5093547;27;49795;-71
2022/04/02 08:53:19;;;;;;;;;3.00;2.00;;;;;-142.59;100.00;56100.38;5093432;27;49736;-73
2022/04/02 08:56:00;;;;;;;;;1.00;0.25;;;;;-142.59;100.00;56100.38;5112906;27;49871;-76
2022/04/02 08:59:00;;;;;;;;;4.00;3.00;;;;;-142.59;100.00;56100.38;5112712;27;50000;-67
2022/04/02 09:01:47;;;;;;;;;4.75;4.00;;;;;-142.59;100.00;56100.38;5113103;27;49684;-64
2022/04/02 09:04:15;;;;;;;;;4.25;4.00;;;;;-142.59;100.00;56100.38;5112602;27;49973;-67
2022/04/02 09:07:08;;;;;;;;;1.00;1.00;;;;;-142.59;100.00;56100.38;5112846;27;50564;-65
2022/04/02 09:10:11;;;;;;;;;5.00;5.00;;;;;-142.59;100.00;56100.38;5112910;27;49784;-63
2022/04/02 09:12:52;;;;;;;;;1.75;1.25;;;;;-142.59;100.00;56100.38;5112513;27;50072;-63
2022/04/02 09:15:30;;;;;;;;;0.00;0.00;;;;;-142.59;100.00;56100.38;5113275;27;50142;-62
2022/04/02 09:18:28;;;;;;;;;5.00;5.00;;;;;-142.59;100.00;56100.38;5112735;27;50899;-62
2022/04/02 09:21:00;;;;;;;;;4.25;4.25;;;;;-142.59;100.00;56100.38;5112807;27;49650;-62
2022/04/02 09:23:41;;;;;;;;;5.50;5.50;;;;;-142.59;100.00;56100.38;5112847;27;49721;-76
2022/04/02 09:26:48;;;;;;;;;5.00;5.00;;;;;-142.59;100.00;56100.38;5112451;27;49992;-71
2022/04/02 09:29:16;;;;;;;;;8.75;7.00;;;;;-142.59;100.00;56100.38;5092469;27;49719;-66
2022/04/02 09:31:50;;;;;;;;;8.00;8.00;;;;;-142.59;100.00;56100.38;5092772;27;49845;-68
2022/04/02 09:34:37;;;;;;;;;5.25;3.75;;;;;-142.59;100.00;56100.38;5092721;27;49924;-62
2022/04/02 09:37:36;;;;;;;;;2.00;2.00;;;;;-142.59;100.00;56100.38;5092968;27;49984;-63
2022/04/02 09:40:08;;;;;;;;;4.00;4.00;;;;;-142.59;100.00;56100.38;5092630;27;51022;-70
2022/04/02 09:42:45;;;;;;;;;9.25;9.25;;;;;-142.59;100.00;56100.38;5092438;27;49750;-71
2022/04/02 09:45:18;;;;;;;;;5.50;5.50;;;;;-142.59;100.00;56100.38;5092624;27;50160;-62
2022/04/02 09:48:11;;;;;;;;;1.00;1.00;;;;;-142.59;100.00;56100.38;5092862;27;49842;-64
2022/04/02 09:50:37;;;;;;;;;5.00;2.00;;;;;-142.59;100.00;56100.38;5092758;27;50725;-62
2022/04/02 09:53:14;;;;;;;;;3.00;2.75;;;;;-142.59;100.00;56100.38;5092369;27;49828;-63
2022/04/02 09:56:08;;;;;;;;;4.50;4.25;;;;;-142.59;100.00;56100.38;5092596;27;49735;-68
2022/04/02 09:58:58;;;;;;;;;5.00;5.00;;;;;-142.59;100.00;56100.38;5092131;27;49719;-66
2022/04/02 10:01:39;;;;;;;;;7.00;5.00;;;;;-142.59;100.00;56100.38;5092252;27;49913;-64
2022/04/02 10:04:21;;;;;;;;;2.00;1.00;;;;;-142.59;100.00;56100.38;5090597;27;49833;-62
2022/04/02 10:06:49;;;;;;;;;1.00;1.00;;;;;-142.59;100.00;56100.38;5092105;27;49855;-62
2022/04/02 10:09:17;;;;;;;;;3.25;3.25;;;;;-142.59;100.00;56100.38;5092639;27;49959;-62
2022/04/02 10:11:58;;;;;;;;;2.50;2.50;;;;;-142.59;100.00;56100.38;5092274;27;50780;-68
2022/04/02 10:14:25;;;;;;;;;5.00;3.00;;;;;-142.59;100.00;56100.38;5092113;27;49895;-65
2022/04/02 10:16:53;;;;;;;;;5.50;5.00;;;;;-142.59;100.00;56100.38;5092179;27;49833;-67
2022/04/02 10:19:27;;;;;;;;;5.75;4.25;;;;;-142.59;100.00;56100.38;5092217;27;49711;-69
2022/04/02 10:21:57;;;;;;;;;6.00;2.25;;;;;-142.59;100.00;56100.38;5092138;27;50029;-64
2022/04/02 10:24:24;;;;;;;;;4.00;3.25;;;;;-142.59;100.00;56100.38;5090981;27;50015;-68
2022/04/02 10:26:53;;;;;;;;;4.50;3.25;;;;;-142.59;100.00;56100.38;5091794;27;49801;-64
2022/04/02 10:29:23;;;;;;;;;3.50;1.75;;;;;-142.59;100.00;56100.38;5091869;27;49819;-65
2022/04/02 10:32:17;;;;;;;;;2.00;2.00;;;;;-142.59;100.00;56100.38;5091452;27;50894;-71
2022/04/02 10:34:57;;;;;;;;;1.00;1.00;;;;;-142.59;100.00;56100.38;5107429;27;49824;-66
2022/04/02 10:37:27;;;;;;;;;2.50;2.50;;;;;-142.59;100.00;56100.38;5111634;27;49588;-62
2022/04/02 10:40:05;;;;;;;;;3.50;2.00;;;;;-142.59;100.00;56100.38;5111663;27;50050;-62
2022/04/02 10:42:39;;;;;;;;;3.00;3.00;;;;;-142.59;100.00;56100.38;5111355;27;50691;-62
2022/04/02 10:45:12;;;;;;;;;1.75;1.75;;;;;-142.59;100.00;56100.38;5111090;27;49701;-64
2022/04/02 10:47:44;;;;;;;;;2.25;2.25;;;;;-142.59;100.00;56100.38;5111267;27;49777;-68
2022/04/02 10:50:11;;;;;;;;;3.75;3.75;;;;;-142.59;100.00;56100.38;5127435;27;49990;-61
2022/04/02 10:52:37;;;;;;;;;5.25;3.50;;;;;-142.59;100.00;56100.38;5111045;27;51603;-62
2022/04/02 10:55:04;;;;;;;;;0.00;0.00;;;;;-142.59;100.00;56100.38;5110876;27;49721;-66
2022/04/02 10:57:32;;;;;;;;;4.50;4.50;;;;;-142.59;100.00;56100.38;5110923;27;49765;-62
2022/04/02 11:00:07;;;;;;;;;5.00;5.00;;;;;-142.59;100.00;56100.38;5110719;27;50045;-61
2022/04/02 11:02:45;;;;;;;;;2.75;2.75;;;;;-142.59;100.00;56100.38;5110957;27;50406;-65
2022/04/02 11:05:14;;;;;;;;;1.75;0.50;;;;;-142.59;100.00;56100.38;5110796;27;49803;-61
2022/04/02 11:07:42;;;;;;;;;4.00;4.00;;;;;-142.59;100.00;56100.38;5111109;27;49884;-62
2022/04/02 11:10:11;;;;;;;;;9.75;5.75;;;;;-142.59;100.00;56100.38;5111319;27;49841;-61
2022/04/02 11:12:39;;;;;;;;;3.50;2.75;;;;;-142.59;100.00;56100.38;5110546;27;50521;-63
2022/04/02 11:15:09;;;;;;;;;5.75;4.50;;;;;-142.59;100.00;56100.38;5110883;27;49765;-62
2022/04/02 11:17:37;;;;;;;;;6.00;6.00;;;;;-142.59;100.00;56100.38;5110764;27;49893;-60
2022/04/02 11:20:04;;;;;;;;;2.00;2.00;;;;;-142.59;100.00;56100.38;5110879;27;50031;-63
2022/04/02 11:23:02;;;;;;;;;3.00;3.00;;;;;-142.59;100.00;56100.38;5110555;27;50615;-65